createdAt,value
2023-05-12T00:01:30.331Z,100841.21
2023-05-12T00:04:02.265Z,100840.29
2023-05-12T00:06:34.057Z,100843.13
2023-05-12T00:09:06.369Z,100838.23
2023-05-12T00:11:39.018Z,100836.16
2023-05-12T00:14:11.502Z,100840.44
2023-05-12T00:16:43.395Z,100837.81
2023-05-12T00:19:15.387Z,100840.60
2023-05-12T00:21:46.998Z,100839.66
2023-05-12T00:24:18.713Z,100839.73
2023-05-12T00:26:50.559Z,100842.23
2023-05-12T00:29:22.188Z,100841.75
2023-05-12T00:31:53.964Z,100838.33
2023-05-12T00:34:25.909Z,100832.96
2023-05-12T00:36:57.729Z,100832.63
2023-05-12T00:39:29.380Z,100836.80
2023-05-12T00:42:01.813Z,100837.81
2023-05-12T00:44:33.694Z,100835.15
2023-05-12T00:47:06.257Z,100834.51
2023-05-12T00:49:38.265Z,100834.50
2023-05-12T00:52:10.735Z,100832.97
2023-05-12T00:54:45.204Z,100833.86
2023-05-12T00:57:17.078Z,100837.05
2023-05-12T00:59:49.275Z,100837.94
2023-05-12T01:02:21.189Z,100839.40
2023-05-12T01:04:54.375Z,100836.05
2023-05-12T01:07:27.733Z,100838.71
2023-05-12T01:10:00.212Z,100844.26
2023-05-12T01:12:33.559Z,100846.20
2023-05-12T01:15:04.817Z,100844.08
2023-05-12T01:17:38.581Z,100841.35
2023-05-12T01:20:16.944Z,100845.67
2023-05-12T01:22:50.784Z,100847.45
2023-05-12T01:25:25.163Z,100845.39
2023-05-12T01:27:57.110Z,100840.10
2023-05-12T01:30:30.389Z,100840.88
2023-05-12T01:33:02.687Z,100844.42
2023-05-12T01:35:34.801Z,100847.54
2023-05-12T01:38:07.040Z,100844.59
2023-05-12T01:40:42.432Z,100845.42
2023-05-12T01:43:14.201Z,100849.29
2023-05-12T01:45:45.895Z,100845.88
2023-05-12T01:48:17.529Z,100851.13
2023-05-12T01:50:49.574Z,100851.88
2023-05-12T01:53:25.068Z,100854.58
2023-05-12T01:55:56.859Z,100856.15
2023-05-12T01:58:29.985Z,100859.33
2023-05-12T02:01:03.574Z,100858.30
2023-05-12T02:03:35.949Z,100857.70
2023-05-12T02:06:08.076Z,100863.59
2023-05-12T02:08:40.579Z,100860.52
2023-05-12T02:11:12.394Z,100861.25
2023-05-12T02:13:45.202Z,100863.19
2023-05-12T02:16:17.131Z,100866.66
2023-05-12T02:18:50.053Z,100867.38
2023-05-12T02:21:22.265Z,100869.35
2023-05-12T02:23:56.158Z,100872.91
2023-05-12T02:26:27.949Z,100873.30
2023-05-12T02:28:59.955Z,100872.71
2023-05-12T02:31:31.926Z,100868.17
2023-05-12T02:34:06.565Z,100878.55
2023-05-12T02:36:38.688Z,100881.64
2023-05-12T02:39:10.871Z,100880.75
2023-05-12T02:41:42.561Z,100881.89
2023-05-12T02:44:16.556Z,100886.61
2023-05-12T02:46:48.332Z,100886.57
2023-05-12T02:49:20.113Z,100886.64
2023-05-12T02:51:51.877Z,100890.00
2023-05-12T02:54:23.600Z,100889.20
2023-05-12T02:56:56.540Z,100888.20
2023-05-12T02:59:28.914Z,100885.88
2023-05-12T03:02:01.077Z,100890.16
2023-05-12T03:04:33.533Z,100888.49
2023-05-12T03:07:05.904Z,100888.75
2023-05-12T03:09:38.636Z,100887.59
2023-05-12T03:12:11.267Z,100885.77
2023-05-12T03:14:43.003Z,100887.75
2023-05-12T03:17:14.823Z,100891.74
2023-05-12T03:19:46.540Z,100887.31
2023-05-12T03:22:18.371Z,100889.10
2023-05-12T03:24:49.968Z,100885.86
2023-05-12T03:27:21.912Z,100886.92
2023-05-12T03:29:53.583Z,100884.58
2023-05-12T03:32:25.315Z,100890.59
2023-05-12T03:34:57.106Z,100890.77
2023-05-12T03:37:28.977Z,100889.18
2023-05-12T03:40:00.820Z,100894.40
2023-05-12T03:42:33.121Z,100895.13
2023-05-12T03:45:07.017Z,100892.75
2023-05-12T03:47:40.552Z,100895.14
2023-05-12T03:50:13.390Z,100900.60
2023-05-12T03:52:45.245Z,100901.36
2023-05-12T03:55:17.598Z,100906.55
2023-05-12T03:57:50.352Z,100905.09
2023-05-12T04:00:23.240Z,100903.83
2023-05-12T04:02:55.033Z,100906.63
2023-05-12T04:05:27.281Z,100907.23
2023-05-12T04:08:01.218Z,100909.12
2023-05-12T04:10:34.239Z,100914.27
2023-05-12T04:13:05.898Z,100916.49
2023-05-12T04:15:37.935Z,100917.86
2023-05-12T04:18:10.236Z,100912.64
2023-05-12T04:20:43.553Z,100916.02
2023-05-12T04:23:15.861Z,100919.05
2023-05-12T04:25:47.772Z,100916.11
2023-05-12T04:28:19.865Z,100922.31
2023-05-12T04:30:52.692Z,100923.36
2023-05-12T04:33:26.449Z,100926.48
2023-05-12T04:35:59.487Z,100924.45
2023-05-12T04:38:31.278Z,100926.33
2023-05-12T04:41:03.349Z,100929.48
2023-05-12T04:46:10.370Z,100932.73
2023-05-12T04:48:43.868Z,100930.29
2023-05-12T04:51:14.024Z,100934.55
2023-05-12T04:53:45.793Z,100936.02
2023-05-12T04:56:17.564Z,100940.92
2023-05-12T04:58:49.939Z,100941.02
2023-05-12T05:01:21.812Z,100944.92
2023-05-12T05:03:53.699Z,100946.52
2023-05-12T05:06:25.913Z,100954.23
2023-05-12T05:08:58.159Z,100953.36
2023-05-12T05:11:30.706Z,100949.45
2023-05-12T05:14:02.531Z,100954.84
2023-05-12T05:16:34.823Z,100947.39
2023-05-12T05:19:19.221Z,100950.59
2023-05-12T05:21:56.160Z,100950.34
2023-05-12T05:24:27.921Z,100950.14
2023-05-12T05:26:59.784Z,100946.71
2023-05-12T05:29:31.789Z,100954.02
2023-05-12T05:32:04.398Z,100952.04
2023-05-12T05:34:36.210Z,100954.99
2023-05-12T05:37:08.565Z,100953.43
2023-05-12T05:39:42.077Z,100954.35
2023-05-12T05:42:14.169Z,100955.45
2023-05-12T05:44:46.179Z,100955.16
2023-05-12T05:47:18.338Z,100956.33
2023-05-12T05:49:50.405Z,100954.69
2023-05-12T05:52:24.442Z,100962.16
2023-05-12T05:54:56.686Z,100962.71
2023-05-12T05:57:31.068Z,100964.14
2023-05-12T06:00:05.006Z,100967.56
2023-05-12T06:02:45.394Z,100970.20
2023-05-12T06:05:20.365Z,100971.95
2023-05-12T06:07:51.651Z,100970.88
2023-05-12T06:10:23.939Z,100977.86
2023-05-12T06:12:56.371Z,100975.16
2023-05-12T06:15:28.194Z,100978.20
2023-05-12T06:18:00.477Z,100980.75
2023-05-12T06:20:33.140Z,100985.02
2023-05-12T06:23:05.537Z,100986.63
2023-05-12T06:25:37.399Z,100985.39
2023-05-12T06:28:09.366Z,100983.19
2023-05-12T06:30:42.402Z,100979.00
2023-05-12T06:33:14.283Z,100986.66
2023-05-12T06:35:46.256Z,100983.82
2023-05-12T06:38:20.560Z,100987.63
2023-05-12T06:40:52.367Z,100991.99
2023-05-12T06:43:24.810Z,100994.98
2023-05-12T06:45:59.641Z,100991.75
2023-05-12T06:48:31.353Z,100991.23
2023-05-12T06:51:03.575Z,100992.31
2023-05-12T06:53:37.584Z,100989.94
2023-05-12T06:56:11.383Z,100986.60
2023-05-12T06:58:43.127Z,100988.38
2023-05-12T07:01:15.261Z,100989.88
2023-05-12T07:03:47.072Z,100997.29
2023-05-12T07:06:19.299Z,100995.19
2023-05-12T07:08:51.197Z,100993.13
2023-05-12T07:11:23.012Z,100988.12
2023-05-12T07:13:55.084Z,100989.42
2023-05-12T07:16:26.933Z,100988.75
2023-05-12T07:18:58.790Z,100986.98
2023-05-12T07:21:30.780Z,100986.13
2023-05-12T07:24:02.850Z,100984.67
2023-05-12T07:26:34.598Z,100987.95
2023-05-12T07:29:13.698Z,100981.13
2023-05-12T07:31:46.389Z,100981.29
2023-05-12T07:34:18.222Z,100979.33
2023-05-12T07:36:49.969Z,100986.34
2023-05-12T07:39:23.654Z,100981.61
2023-05-12T07:41:55.751Z,100986.77
2023-05-12T07:44:28.434Z,100984.50
2023-05-12T07:47:00.276Z,100989.80
2023-05-12T07:49:32.208Z,100985.46
2023-05-12T07:52:04.193Z,100986.32
2023-05-12T07:54:36.080Z,100987.80
2023-05-12T07:57:08.014Z,100978.90
2023-05-12T07:59:40.269Z,100977.91
2023-05-12T08:02:12.112Z,100976.91
2023-05-12T08:04:44.510Z,100980.98
2023-05-12T08:07:16.692Z,100983.64
2023-05-12T08:09:48.769Z,100976.52
2023-05-12T08:12:20.631Z,100982.14
2023-05-12T08:14:52.449Z,100981.30
2023-05-12T08:17:25.494Z,100978.19
2023-05-12T08:19:58.191Z,100985.68
2023-05-12T08:22:30.248Z,100980.25
2023-05-12T08:25:02.214Z,100980.70
2023-05-12T08:27:34.056Z,100979.66
2023-05-12T08:30:06.900Z,100980.54
2023-05-12T08:32:38.789Z,100978.31
2023-05-12T08:35:10.754Z,100977.98
2023-05-12T08:37:43.002Z,100977.35
2023-05-12T08:40:21.436Z,100978.08
2023-05-12T08:43:03.654Z,100978.77
2023-05-12T08:45:36.961Z,100979.64
2023-05-12T08:48:11.798Z,100985.52
2023-05-12T08:50:43.889Z,100988.62
2023-05-12T08:53:17.058Z,100989.64
2023-05-12T08:57:08.294Z,100988.29
2023-05-12T08:58:43.722Z,100981.93
2023-05-12T09:01:17.422Z,100982.21
2023-05-12T09:03:49.482Z,100984.15
2023-05-12T09:06:21.525Z,100990.89
2023-05-12T09:08:53.825Z,100986.25
2023-05-12T09:11:25.919Z,100994.51
2023-05-12T09:14:04.379Z,100990.02
2023-05-12T09:16:40.597Z,100987.77
2023-05-12T09:19:13.097Z,100993.90
2023-05-12T09:21:45.271Z,100992.48
2023-05-12T09:24:21.108Z,100991.98
2023-05-12T09:26:54.464Z,100994.16
2023-05-12T09:29:31.932Z,100997.00
2023-05-12T09:32:06.015Z,100999.44
2023-05-12T09:34:41.029Z,100994.27
2023-05-12T09:37:15.218Z,100989.48
2023-05-12T09:39:47.420Z,100993.10
2023-05-12T09:42:19.745Z,100990.51
2023-05-12T09:44:52.120Z,100993.88
2023-05-12T09:47:27.926Z,100990.75
2023-05-12T09:49:59.786Z,100990.77
2023-05-12T09:52:33.547Z,100993.77
2023-05-12T09:55:10.988Z,100990.69
2023-05-12T09:57:44.611Z,100994.23
2023-05-12T10:00:34.469Z,100992.47
2023-05-12T10:03:15.228Z,100987.08
2023-05-12T10:05:51.702Z,100992.04
2023-05-12T10:08:28.423Z,100990.92
2023-05-12T10:11:03.475Z,100997.46
2023-05-12T10:13:36.150Z,100993.58
2023-05-12T10:16:08.170Z,100989.38
2023-05-12T10:18:44.418Z,100982.16
2023-05-12T10:21:17.786Z,100983.02
2023-05-12T10:23:51.323Z,100982.13
2023-05-12T10:26:24.515Z,100979.52
2023-05-12T10:28:56.888Z,100980.55
2023-05-12T10:31:29.683Z,100984.77
2023-05-12T10:34:03.475Z,100980.42
2023-05-12T10:36:46.965Z,100978.19
2023-05-12T10:39:19.460Z,100975.67
2023-05-12T10:42:01.304Z,100969.46
2023-05-12T10:44:33.069Z,100967.91
2023-05-12T10:47:13.939Z,100973.31
2023-05-12T10:49:46.466Z,100976.11
2023-05-12T10:52:22.196Z,100976.26
2023-05-12T10:55:03.110Z,100968.50
2023-05-12T10:57:35.359Z,100960.04
2023-05-12T11:00:13.949Z,100962.98
2023-05-12T11:02:55.068Z,100967.79
2023-05-12T11:05:36.344Z,100965.48
2023-05-12T11:08:09.492Z,100965.81
2023-05-12T11:10:47.185Z,100964.94
2023-05-12T11:13:20.026Z,100960.45
2023-05-12T11:15:53.693Z,100968.48
2023-05-12T11:18:26.138Z,100963.20
2023-05-12T11:20:58.005Z,100960.38
2023-05-12T11:23:31.498Z,100962.70
2023-05-12T11:26:04.909Z,100964.31
2023-05-12T11:28:43.267Z,100960.88
2023-05-12T11:31:20.811Z,100954.70
2023-05-12T11:34:11.885Z,100960.39
2023-05-12T11:36:46.747Z,100949.73
2023-05-12T11:39:20.756Z,100954.41
2023-05-12T11:42:02.057Z,100956.10
2023-05-12T11:44:49.489Z,100954.06
2023-05-12T11:47:22.175Z,100951.60
2023-05-12T11:49:55.495Z,100956.52
2023-05-12T11:52:28.276Z,100956.17
2023-05-12T11:55:01.669Z,100954.08
2023-05-12T11:57:36.096Z,100950.41
2023-05-12T12:00:10.009Z,100954.25
2023-05-12T12:02:43.449Z,100951.98
2023-05-12T12:05:21.402Z,100960.08
2023-05-12T12:07:53.314Z,100955.30
2023-05-12T12:10:25.381Z,100961.87
2023-05-12T12:12:57.100Z,100960.73
2023-05-12T12:15:28.779Z,100951.29
2023-05-12T12:18:01.228Z,100955.87
2023-05-12T12:20:33.553Z,100961.60
2023-05-12T12:23:05.649Z,100956.73
2023-05-12T12:25:37.410Z,100952.95
2023-05-12T12:28:09.238Z,100953.19
2023-05-12T12:30:40.949Z,100955.02
2023-05-12T12:33:12.958Z,100949.86
2023-05-12T12:35:43.687Z,100948.04
2023-05-12T12:38:15.593Z,100947.77
2023-05-12T12:40:47.662Z,100950.57
2023-05-12T12:43:19.448Z,100950.52
2023-05-12T12:45:51.228Z,100943.70
2023-05-12T12:48:23.238Z,100944.83
2023-05-12T12:50:55.907Z,100945.02
2023-05-12T12:53:27.836Z,100938.00
2023-05-12T12:56:00.137Z,100946.11
2023-05-12T12:58:32.657Z,100940.20
2023-05-12T13:01:04.896Z,100944.04
2023-05-12T13:03:36.744Z,100941.46
2023-05-12T13:06:09.242Z,100931.31
2023-05-12T13:08:40.788Z,100937.56
2023-05-12T13:11:12.704Z,100937.36
2023-05-12T13:13:44.804Z,100935.55
2023-05-12T13:16:16.696Z,100931.05
2023-05-12T13:18:48.457Z,100930.33
2023-05-12T13:21:20.228Z,100927.76
2023-05-12T13:23:52.008Z,100920.78
2023-05-12T13:26:23.703Z,100926.92
2023-05-12T13:28:55.877Z,100926.39
2023-05-12T13:31:27.981Z,100926.73
2023-05-12T13:33:59.781Z,100922.73
2023-05-12T13:36:33.581Z,100914.61
2023-05-12T13:39:05.420Z,100923.68
2023-05-12T13:41:37.298Z,100922.65
2023-05-12T13:44:09.509Z,100919.05
2023-05-12T13:46:41.413Z,100923.26
2023-05-12T13:49:13.690Z,100914.95
2023-05-12T13:51:46.245Z,100914.10
2023-05-12T13:54:18.384Z,100914.48
2023-05-12T13:56:50.290Z,100917.27
2023-05-12T13:59:22.285Z,100915.60
2023-05-12T14:01:54.142Z,100914.63
2023-05-12T14:04:27.143Z,100913.46
2023-05-12T14:06:59.031Z,100916.59
2023-05-12T14:09:30.811Z,100913.71
2023-05-12T14:12:04.281Z,100915.27
2023-05-12T14:14:36.220Z,100909.94
2023-05-12T14:17:08.918Z,100904.95
2023-05-12T14:19:41.091Z,100905.61
2023-05-12T14:22:25.332Z,100911.86
2023-05-12T14:24:58.324Z,100910.32
2023-05-12T14:27:30.165Z,100915.75
2023-05-12T14:30:02.039Z,100910.66
2023-05-12T14:32:34.744Z,100907.62
2023-05-12T14:35:06.619Z,100916.10
2023-05-12T14:37:40.149Z,100916.55
2023-05-12T14:40:14.434Z,100912.80
2023-05-12T14:42:47.857Z,100908.56
2023-05-12T14:45:20.657Z,100914.70
2023-05-12T14:47:52.625Z,100914.61
2023-05-12T14:50:24.408Z,100913.45
2023-05-12T14:52:56.391Z,100911.81
2023-05-12T14:55:29.787Z,100917.31
2023-05-12T14:58:01.657Z,100918.20
2023-05-12T15:00:34.353Z,100919.23
2023-05-12T15:03:07.692Z,100916.98
2023-05-12T15:05:56.846Z,100916.68
2023-05-12T15:08:31.527Z,100911.95
2023-05-12T15:11:03.852Z,100909.55
2023-05-12T15:13:35.667Z,100916.73
2023-05-12T15:16:08.182Z,100913.40
2023-05-12T15:18:39.999Z,100914.89
2023-05-12T15:21:11.854Z,100917.27
2023-05-12T15:23:44.011Z,100912.42
2023-05-12T15:26:31.872Z,100918.58
2023-05-12T15:29:05.182Z,100910.56
2023-05-12T15:31:37.077Z,100912.95
2023-05-12T15:34:09.150Z,100916.06
2023-05-12T15:36:41.321Z,100915.57
2023-05-12T15:39:13.467Z,100916.76
2023-05-12T15:41:45.490Z,100914.70
2023-05-12T15:44:18.138Z,100919.73
2023-05-12T15:46:49.916Z,100915.27
2023-05-12T15:49:21.651Z,100920.43
2023-05-12T15:51:54.058Z,100922.57
2023-05-12T15:54:26.324Z,100916.05
2023-05-12T15:56:57.992Z,100921.42
2023-05-12T15:59:29.840Z,100919.14
2023-05-12T16:02:02.098Z,100920.90
2023-05-12T16:04:33.758Z,100920.43
2023-05-12T16:07:05.778Z,100915.45
2023-05-12T16:09:37.637Z,100916.27
2023-05-12T16:12:11.311Z,100917.91
2023-05-12T16:14:43.167Z,100910.23
2023-05-12T16:17:15.016Z,100914.08
2023-05-12T16:19:45.912Z,100917.54
2023-05-12T16:22:17.715Z,100915.96
2023-05-12T16:24:50.087Z,100914.44
2023-05-12T16:27:20.268Z,100916.70
2023-05-12T16:29:53.430Z,100916.27
2023-05-12T16:32:25.919Z,100916.56
2023-05-12T16:34:58.020Z,100920.08
2023-05-12T16:37:29.734Z,100921.53
2023-05-12T16:40:01.937Z,100925.16
2023-05-12T16:42:32.058Z,100923.14
2023-05-12T16:45:03.891Z,100916.86
2023-05-12T16:47:36.335Z,100918.95
2023-05-12T16:50:07.815Z,100919.95
2023-05-12T16:52:39.952Z,100921.73
2023-05-12T16:55:13.216Z,100923.77
2023-05-12T16:57:45.446Z,100922.20
2023-05-12T17:00:17.264Z,100919.88
2023-05-12T17:02:49.069Z,100920.32
2023-05-12T17:05:21.636Z,100926.25
2023-05-12T17:07:54.374Z,100928.38
2023-05-12T17:10:24.591Z,100926.46
2023-05-12T17:12:56.524Z,100926.52
2023-05-12T17:15:28.390Z,100924.22
2023-05-12T17:18:00.195Z,100931.48
2023-05-12T17:20:32.459Z,100930.72
2023-05-12T17:23:04.235Z,100930.55
2023-05-12T17:25:36.697Z,100930.62
2023-05-12T17:28:06.997Z,100933.90
2023-05-12T17:30:38.779Z,100943.26
2023-05-12T17:33:10.770Z,100940.77
2023-05-12T17:35:42.712Z,100945.89
2023-05-12T17:38:14.449Z,100943.76
2023-05-12T17:40:46.539Z,100950.25
2023-05-12T17:43:18.510Z,100951.63
2023-05-12T17:45:50.193Z,100955.98
2023-05-12T17:48:22.319Z,100960.52
2023-05-12T17:50:54.015Z,100964.55
2023-05-12T17:53:26.113Z,100965.48
2023-05-12T17:55:58.414Z,100971.86
2023-05-12T17:58:30.221Z,100968.00
2023-05-12T18:01:02.142Z,100968.56
2023-05-12T18:03:34.134Z,100974.01
2023-05-12T18:06:06.582Z,100971.98
2023-05-12T18:08:38.409Z,100978.98
2023-05-12T18:11:10.142Z,100982.09
2023-05-12T18:13:42.755Z,100982.73
2023-05-12T18:16:25.303Z,100984.77
2023-05-12T18:19:00.458Z,100982.89
2023-05-12T18:21:32.767Z,100986.57
2023-05-12T18:24:04.753Z,100987.01
2023-05-12T18:26:36.601Z,100988.88
2023-05-12T18:29:08.303Z,100984.48
2023-05-12T18:31:41.164Z,100988.23
2023-05-12T18:34:13.122Z,100988.94
2023-05-12T18:36:45.246Z,100995.46
2023-05-12T18:39:18.279Z,100999.17
2023-05-12T18:41:50.483Z,101002.14
2023-05-12T18:44:22.960Z,101003.19
2023-05-12T18:46:54.804Z,101003.30
2023-05-12T18:49:27.072Z,101010.95
2023-05-12T18:51:59.398Z,101007.95
2023-05-12T18:54:31.484Z,101019.63
2023-05-12T18:57:03.224Z,101018.94
2023-05-12T18:59:35.069Z,101020.98
2023-05-12T19:02:07.225Z,101021.13
2023-05-12T19:04:39.503Z,101027.10
2023-05-12T19:07:15.189Z,101021.29
2023-05-12T19:09:48.223Z,101020.74
2023-05-12T19:12:19.971Z,101026.37
2023-05-12T19:14:52.208Z,101028.36
2023-05-12T19:17:24.152Z,101029.98
2023-05-12T19:19:58.125Z,101033.70
2023-05-12T19:22:29.970Z,101036.86
2023-05-12T19:25:02.028Z,101036.52
2023-05-12T19:27:34.063Z,101039.48
2023-05-12T19:30:06.962Z,101041.67
2023-05-12T19:32:39.901Z,101046.77
2023-05-12T19:35:12.559Z,101044.55
2023-05-12T19:37:43.164Z,101048.33
2023-05-12T19:40:15.587Z,101054.56
2023-05-12T19:42:47.592Z,101050.55
2023-05-12T19:45:19.914Z,101051.90
2023-05-12T19:47:52.938Z,101057.27
2023-05-12T19:50:27.058Z,101055.73
2023-05-12T19:52:58.998Z,101057.11
2023-05-12T19:55:31.577Z,101056.10
2023-05-12T19:58:03.352Z,101057.88
2023-05-12T20:00:36.972Z,101061.90
2023-05-12T20:03:10.750Z,101067.16
2023-05-12T20:05:43.149Z,101064.41
2023-05-12T20:08:16.025Z,101068.52
2023-05-12T20:10:48.446Z,101067.77
2023-05-12T20:13:20.348Z,101065.03
2023-05-12T20:15:52.204Z,101070.20
2023-05-12T20:18:24.788Z,101069.41
2023-05-12T20:20:56.593Z,101070.37
2023-05-12T20:23:29.039Z,101072.17
2023-05-12T20:26:01.118Z,101072.57
2023-05-12T20:28:33.322Z,101073.23
2023-05-12T20:31:06.412Z,101075.52
2023-05-12T20:33:38.265Z,101074.94
2023-05-12T20:36:10.358Z,101075.80
2023-05-12T20:38:42.232Z,101074.11
2023-05-12T20:41:14.076Z,101074.39
2023-05-12T20:43:47.879Z,101075.16
2023-05-12T20:46:19.848Z,101076.61
2023-05-12T20:48:51.997Z,101080.11
2023-05-12T20:51:24.055Z,101081.82
2023-05-12T20:53:55.774Z,101080.34
2023-05-12T20:56:27.694Z,101081.66
2023-05-12T20:58:59.466Z,101074.77
2023-05-12T21:01:31.486Z,101087.57
2023-05-12T21:04:03.780Z,101087.58
2023-05-12T21:06:37.710Z,101091.21
2023-05-12T21:09:09.733Z,101097.12
2023-05-12T21:11:41.808Z,101100.30
2023-05-12T21:14:13.425Z,101101.50
2023-05-12T21:16:45.186Z,101100.02
2023-05-12T21:19:16.998Z,101104.63
2023-05-12T21:21:48.719Z,101102.61
2023-05-12T21:24:20.384Z,101100.79
2023-05-12T21:26:52.153Z,101104.75
2023-05-12T21:29:24.234Z,101103.54
2023-05-12T21:31:56.434Z,101105.95
2023-05-12T21:34:28.307Z,101104.25
2023-05-12T21:37:00.579Z,101102.64
2023-05-12T21:39:32.335Z,101104.89
2023-05-12T21:42:04.134Z,101105.85
2023-05-12T21:44:35.869Z,101102.73
2023-05-12T21:47:08.567Z,101104.48
2023-05-12T21:49:38.781Z,101109.41
2023-05-12T21:52:10.706Z,101109.07
2023-05-12T21:54:42.399Z,101107.88
2023-05-12T21:57:14.035Z,101106.11
2023-05-12T21:59:45.719Z,101109.04
2023-05-12T22:02:17.492Z,101107.90
2023-05-12T22:04:49.235Z,101111.86
2023-05-12T22:07:20.924Z,101113.29
2023-05-12T22:09:52.734Z,101108.55
2023-05-12T22:12:24.440Z,101111.13
2023-05-12T22:14:56.086Z,101113.42
2023-05-12T22:17:27.921Z,101114.42
2023-05-12T22:19:59.788Z,101113.88
2023-05-12T22:22:31.682Z,101111.84
2023-05-12T22:25:04.379Z,101110.20
2023-05-12T22:27:34.533Z,101111.52
2023-05-12T22:30:07.302Z,101111.34
2023-05-12T22:32:37.498Z,101111.38
2023-05-12T22:35:10.651Z,101109.53
2023-05-12T22:37:42.457Z,101112.57
2023-05-12T22:40:14.511Z,101114.34
2023-05-12T22:42:46.658Z,101107.90
2023-05-12T22:45:18.635Z,101110.97
2023-05-12T22:47:50.359Z,101115.88
2023-05-12T22:50:22.549Z,101116.06
2023-05-12T22:52:57.282Z,101114.59
2023-05-12T22:55:31.060Z,101118.35
2023-05-12T22:58:02.694Z,101113.54
2023-05-12T23:00:34.896Z,101115.72
2023-05-12T23:03:07.277Z,101119.46
2023-05-12T23:05:39.055Z,101121.34
2023-05-12T23:08:10.747Z,101123.36
2023-05-12T23:10:42.412Z,101123.79
2023-05-12T23:13:14.150Z,101123.08
2023-05-12T23:15:45.880Z,101124.83
2023-05-12T23:18:17.584Z,101124.67
2023-05-12T23:20:49.323Z,101121.36
2023-05-12T23:23:21.335Z,101127.69
2023-05-12T23:25:53.427Z,101123.02
2023-05-12T23:28:25.258Z,101124.52
2023-05-12T23:30:56.982Z,101120.85
2023-05-12T23:33:28.640Z,101118.70
2023-05-12T23:36:00.501Z,101121.09
2023-05-12T23:38:32.198Z,101120.05
2023-05-12T23:41:03.853Z,101118.23
2023-05-12T23:43:36.031Z,101112.64
2023-05-12T23:46:07.912Z,101115.35
2023-05-12T23:48:39.571Z,101117.51
2023-05-12T23:51:11.437Z,101116.25
2023-05-12T23:53:43.196Z,101123.34
2023-05-12T23:56:14.919Z,101120.23
2023-05-12T23:58:46.901Z,101119.29
